UAE1212 OLBA-OMDB
Flight info
| Callsign | UAE1212 |
|---|---|
| Flight time | 2h 53m |
| Altitude | 39000 |
| Route | LATEB DCT LOTAX DCT BASEM DCT ABBAS DCT SULAF DCT TAN DCT MODIK DCT RAPLU DCT PUSTO DCT SILBO DCT LOVEK DCT KODAV DCT ILMAP DCT ULDUR DCT SIDAD DCT DESLU DCT NANPI DCT ALNIN DCT IMDAT DCT DURSI DCT PEGET DCT EGMIT DCT LEVNA DCT ORSAR DCT GIBIB DCT EMOTA DCT VUTEB |
| Aircraft | A20N/M-SDE2E3FGHIRWXY/LB1 |
Departure
| Time | 2026-05-07 15:17 |
|---|---|
| Airport | Beirut Rafic Hariri International Airport (OLBA) |
Arrival
| Time | 2026-05-07 18:10 |
|---|---|
| Airport | Dubai International Airport (OMDB) |
| Time | Latitude | Longitude | Altitude | Speed | Heading |
|---|---|---|---|---|---|
| 2026-05-07 15:05 | 33.82261 | 35.49368 | 74 ft | 0 kts | 16° |
| 2026-05-07 15:09 | 33.82259 | 35.49368 | 83 ft | 1 kts | 16° |
| 2026-05-07 15:09 | 33.82252 | 35.49365 | 83 ft | 1 kts | 15° |
| 2026-05-07 15:09 | 33.82244 | 35.49363 | 73 ft | 1 kts | 15° |
| 2026-05-07 15:10 | 33.82237 | 35.49360 | 74 ft | 1 kts | 15° |
| 2026-05-07 15:10 | 33.82229 | 35.49357 | 80 ft | 1 kts | 15° |
| 2026-05-07 15:10 | 33.82221 | 35.49355 | 77 ft | 1 kts | 15° |
| 2026-05-07 15:10 | 33.82214 | 35.49352 | 73 ft | 1 kts | 15° |
| 2026-05-07 15:11 | 33.82206 | 35.49350 | 72 ft | 1 kts | 15° |
| 2026-05-07 15:11 | 33.82199 | 35.49347 | 74 ft | 1 kts | 19° |
| 2026-05-07 15:11 | 33.82191 | 35.49344 | 70 ft | 1 kts | 34° |
| 2026-05-07 15:11 | 33.82185 | 35.49338 | 72 ft | 1 kts | 65° |
| 2026-05-07 15:12 | 33.82182 | 35.49329 | 72 ft | 1 kts | 84° |
| 2026-05-07 15:12 | 33.82182 | 35.49322 | 70 ft | 0 kts | 100° |
| 2026-05-07 15:13 | 33.82182 | 35.49324 | 70 ft | 3 kts | 100° |
| 2026-05-07 15:13 | 33.82151 | 35.49422 | 77 ft | 17 kts | 116° |
| 2026-05-07 15:14 | 33.82077 | 35.49508 | 73 ft | 12 kts | 202° |
| 2026-05-07 15:14 | 33.81997 | 35.49449 | 74 ft | 15 kts | 213° |
| 2026-05-07 15:14 | 33.81889 | 35.49359 | 70 ft | 23 kts | 215° |
| 2026-05-07 15:14 | 33.81747 | 35.49237 | 76 ft | 28 kts | 216° |
| 2026-05-07 15:15 | 33.81573 | 35.49090 | 80 ft | 33 kts | 216° |
| 2026-05-07 15:15 | 33.81378 | 35.48921 | 73 ft | 37 kts | 215° |
| 2026-05-07 15:15 | 33.81195 | 35.48756 | 74 ft | 26 kts | 238° |
| 2026-05-07 15:15 | 33.81259 | 35.48655 | 67 ft | 16 kts | 345° |
| 2026-05-07 15:16 | 33.81388 | 35.48618 | 66 ft | 27 kts | 347° |
| 2026-05-07 15:16 | 33.81789 | 35.48507 | 65 ft | 98 kts | 346° |
| 2026-05-07 15:16 | 33.82665 | 35.48263 | 61 ft | 160 kts | 348° |
| 2026-05-07 15:16 | 33.83867 | 35.47927 | 491 ft | 180 kts | 347° |
| 2026-05-07 15:17 | 33.85085 | 35.47442 | 1298 ft | 190 kts | 340° |
| 2026-05-07 15:17 | 33.86294 | 35.46702 | 2022 ft | 203 kts | 332° |
| 2026-05-07 15:17 | 33.87588 | 35.45893 | 2561 ft | 221 kts | 337° |
| 2026-05-07 15:17 | 33.89006 | 35.45109 | 3105 ft | 240 kts | 337° |
| 2026-05-07 15:18 | 33.90575 | 35.44253 | 3711 ft | 254 kts | 340° |
| 2026-05-07 15:18 | 33.92229 | 35.43543 | 4644 ft | 256 kts | 341° |
| 2026-05-07 15:18 | 33.93909 | 35.42827 | 5418 ft | 266 kts | 340° |
| 2026-05-07 15:18 | 33.95691 | 35.42051 | 6144 ft | 276 kts | 340° |
| 2026-05-07 15:19 | 33.97517 | 35.41248 | 6919 ft | 283 kts | 340° |
| 2026-05-07 15:19 | 33.99362 | 35.40435 | 7815 ft | 284 kts | 339° |
| 2026-05-07 15:19 | 34.01191 | 35.39631 | 8666 ft | 287 kts | 339° |
| 2026-05-07 15:19 | 34.03077 | 35.38801 | 9527 ft | 290 kts | 339° |
| 2026-05-07 15:20 | 34.04992 | 35.37958 | 10320 ft | 296 kts | 339° |
| 2026-05-07 15:20 | 34.07025 | 35.37121 | 10654 ft | 318 kts | 346° |
| 2026-05-07 15:20 | 34.09303 | 35.37046 | 10916 ft | 342 kts | 9° |
| 2026-05-07 15:20 | 34.11526 | 35.38090 | 11510 ft | 352 kts | 32° |
| 2026-05-07 15:21 | 34.13341 | 35.40122 | 12223 ft | 360 kts | 52° |
| 2026-05-07 15:21 | 34.14661 | 35.42605 | 12932 ft | 365 kts | 59° |
| 2026-05-07 15:21 | 34.15916 | 35.45235 | 13667 ft | 369 kts | 58° |
| 2026-05-07 15:21 | 34.17232 | 35.47848 | 14330 ft | 372 kts | 56° |
| 2026-05-07 15:22 | 34.18680 | 35.50519 | 15028 ft | 374 kts | 54° |
| 2026-05-07 15:22 | 34.20169 | 35.53136 | 15678 ft | 378 kts | 53° |
| 2026-05-07 15:22 | 34.21658 | 35.55693 | 16332 ft | 381 kts | 53° |
| 2026-05-07 15:22 | 34.23201 | 35.58323 | 16966 ft | 385 kts | 53° |
| 2026-05-07 15:23 | 34.24741 | 35.60945 | 17602 ft | 388 kts | 52° |
| 2026-05-07 15:23 | 34.26306 | 35.63612 | 18232 ft | 391 kts | 52° |
| 2026-05-07 15:23 | 34.27796 | 35.66369 | 18773 ft | 397 kts | 62° |
| 2026-05-07 15:23 | 34.28676 | 35.69595 | 19295 ft | 405 kts | 79° |
| 2026-05-07 15:24 | 34.28750 | 35.72990 | 19766 ft | 413 kts | 97° |
| 2026-05-07 15:24 | 34.28061 | 35.76236 | 20233 ft | 418 kts | 112° |
| 2026-05-07 15:24 | 34.26825 | 35.79470 | 20711 ft | 422 kts | 117° |
| 2026-05-07 15:24 | 34.25456 | 35.82656 | 21205 ft | 427 kts | 118° |
| 2026-05-07 15:25 | 34.24111 | 35.85841 | 21689 ft | 432 kts | 117° |
| 2026-05-07 15:25 | 34.22778 | 35.89137 | 22181 ft | 436 kts | 116° |
| 2026-05-07 15:25 | 34.21462 | 35.92500 | 22664 ft | 441 kts | 116° |
| 2026-05-07 15:25 | 34.20172 | 35.95856 | 23118 ft | 445 kts | 115° |
| 2026-05-07 15:26 | 34.18873 | 35.99256 | 23616 ft | 450 kts | 115° |
| 2026-05-07 15:26 | 34.17664 | 36.02421 | 23986 ft | 453 kts | 115° |
| 2026-05-07 15:26 | 34.16333 | 36.05904 | 24405 ft | 456 kts | 115° |
| 2026-05-07 15:26 | 34.15002 | 36.09379 | 24829 ft | 458 kts | 115° |
| 2026-05-07 15:27 | 34.13667 | 36.12860 | 25217 ft | 461 kts | 115° |
| 2026-05-07 15:27 | 34.12315 | 36.16379 | 25593 ft | 464 kts | 116° |
| 2026-05-07 15:27 | 34.11030 | 36.19718 | 26000 ft | 466 kts | 116° |
| 2026-05-07 15:27 | 34.09649 | 36.23304 | 26378 ft | 469 kts | 116° |
| 2026-05-07 15:28 | 34.08280 | 36.26856 | 26744 ft | 472 kts | 116° |
| 2026-05-07 15:28 | 34.06886 | 36.30464 | 27137 ft | 474 kts | 116° |
| 2026-05-07 15:28 | 34.05479 | 36.34106 | 27506 ft | 477 kts | 116° |
| 2026-05-07 15:28 | 34.04083 | 36.37713 | 27872 ft | 479 kts | 116° |
| 2026-05-07 15:29 | 34.02685 | 36.41331 | 28215 ft | 482 kts | 115° |
| 2026-05-07 15:29 | 34.01379 | 36.44937 | 28532 ft | 484 kts | 114° |
| 2026-05-07 15:29 | 34.00101 | 36.48628 | 28848 ft | 487 kts | 113° |
| 2026-05-07 15:29 | 33.98783 | 36.52453 | 29164 ft | 489 kts | 113° |
| 2026-05-07 15:30 | 33.97479 | 36.56208 | 29462 ft | 491 kts | 114° |
| 2026-05-07 15:30 | 33.96102 | 36.60019 | 29759 ft | 493 kts | 115° |
| 2026-05-07 15:30 | 33.94697 | 36.63751 | 30058 ft | 495 kts | 116° |
| 2026-05-07 15:30 | 33.93261 | 36.67535 | 30352 ft | 496 kts | 116° |
| 2026-05-07 15:31 | 33.91826 | 36.71321 | 30635 ft | 498 kts | 115° |
| 2026-05-07 15:31 | 33.90396 | 36.75106 | 30902 ft | 499 kts | 115° |
| 2026-05-07 15:31 | 33.88945 | 36.78951 | 31190 ft | 500 kts | 115° |
| 2026-05-07 15:31 | 33.87513 | 36.82749 | 31527 ft | 500 kts | 115° |
| 2026-05-07 15:32 | 33.86087 | 36.86529 | 31912 ft | 498 kts | 115° |
| 2026-05-07 15:32 | 33.84648 | 36.90336 | 32294 ft | 497 kts | 116° |
| 2026-05-07 15:32 | 33.83432 | 36.93552 | 32582 ft | 496 kts | 116° |
| 2026-05-07 15:32 | 33.81978 | 36.97392 | 32941 ft | 495 kts | 116° |
| 2026-05-07 15:33 | 33.80555 | 37.01147 | 33280 ft | 494 kts | 116° |
| 2026-05-07 15:33 | 33.79141 | 37.04871 | 33631 ft | 492 kts | 116° |
| 2026-05-07 15:33 | 33.77709 | 37.08639 | 33916 ft | 492 kts | 116° |
| 2026-05-07 15:33 | 33.76285 | 37.12384 | 34200 ft | 491 kts | 116° |
| 2026-05-07 15:34 | 33.74884 | 37.16064 | 34468 ft | 490 kts | 116° |
| 2026-05-07 15:34 | 33.73450 | 37.19826 | 34718 ft | 489 kts | 116° |
| 2026-05-07 15:34 | 33.72065 | 37.23459 | 34964 ft | 488 kts | 116° |
| 2026-05-07 15:34 | 33.70725 | 37.26968 | 35200 ft | 487 kts | 116° |
| 2026-05-07 15:35 | 33.69321 | 37.30642 | 35431 ft | 486 kts | 116° |
| 2026-05-07 15:35 | 33.67904 | 37.34343 | 35665 ft | 485 kts | 117° |
| 2026-05-07 15:35 | 33.66560 | 37.37851 | 35877 ft | 484 kts | 117° |
| 2026-05-07 15:35 | 33.65159 | 37.41504 | 36097 ft | 483 kts | 117° |
| 2026-05-07 15:36 | 33.63739 | 37.45201 | 36312 ft | 482 kts | 117° |
| 2026-05-07 15:36 | 33.62338 | 37.48842 | 36520 ft | 481 kts | 117° |
| 2026-05-07 15:36 | 33.60949 | 37.52450 | 36716 ft | 480 kts | 117° |
| 2026-05-07 15:36 | 33.59537 | 37.56114 | 36903 ft | 480 kts | 117° |
| 2026-05-07 15:37 | 33.58135 | 37.59724 | 37089 ft | 478 kts | 120° |
| 2026-05-07 15:37 | 33.56394 | 37.63066 | 37232 ft | 472 kts | 132° |
| 2026-05-07 15:37 | 33.54161 | 37.65874 | 37348 ft | 465 kts | 144° |
| 2026-05-07 15:37 | 33.51506 | 37.68060 | 37470 ft | 457 kts | 157° |
| 2026-05-07 15:38 | 33.48703 | 37.69861 | 37585 ft | 460 kts | 150° |
| 2026-05-07 15:38 | 33.46208 | 37.72244 | 37710 ft | 466 kts | 138° |
| 2026-05-07 15:38 | 33.44134 | 37.75250 | 37823 ft | 472 kts | 126° |
| 2026-05-07 15:38 | 33.42604 | 37.78728 | 37896 ft | 477 kts | 113° |
| 2026-05-07 15:39 | 33.41681 | 37.82559 | 37999 ft | 481 kts | 101° |
| 2026-05-07 15:39 | 33.41421 | 37.86516 | 38069 ft | 484 kts | 89° |
| 2026-05-07 15:39 | 33.41829 | 37.90494 | 38140 ft | 486 kts | 76° |
| 2026-05-07 15:39 | 33.42808 | 37.94324 | 38221 ft | 486 kts | 71° |
| 2026-05-07 15:40 | 33.44497 | 38.02197 | 38401 ft | 487 kts | 82° |
| 2026-05-07 15:40 | 33.45192 | 38.10197 | 38592 ft | 486 kts | 88° |
| 2026-05-07 15:41 | 33.45575 | 38.18279 | 38761 ft | 485 kts | 88° |
| 2026-05-07 15:41 | 33.46018 | 38.26363 | 38929 ft | 485 kts | 87° |
| 2026-05-07 15:42 | 33.46497 | 38.34397 | 39008 ft | 485 kts | 88° |
| 2026-05-07 15:42 | 33.46963 | 38.42439 | 39006 ft | 484 kts | 88° |
| 2026-05-07 15:43 | 33.47419 | 38.50504 | 39002 ft | 484 kts | 88° |
| 2026-05-07 15:43 | 33.47869 | 38.58560 | 39004 ft | 484 kts | 88° |
| 2026-05-07 15:44 | 33.48199 | 38.66427 | 39005 ft | 482 kts | 94° |
| 2026-05-07 15:44 | 33.47903 | 38.74321 | 39002 ft | 482 kts | 95° |
| 2026-05-07 15:45 | 33.47596 | 38.82349 | 38997 ft | 482 kts | 95° |
| 2026-05-07 15:45 | 33.47296 | 38.90130 | 38998 ft | 482 kts | 95° |
| 2026-05-07 15:46 | 33.46818 | 39.02177 | 38994 ft | 483 kts | 96° |
| 2026-05-07 15:47 | 33.46621 | 39.10227 | 38995 ft | 484 kts | 94° |
| 2026-05-07 15:47 | 33.46483 | 39.18257 | 38997 ft | 484 kts | 94° |
| 2026-05-07 15:48 | 33.46320 | 39.26327 | 38998 ft | 484 kts | 95° |
| 2026-05-07 15:48 | 33.46147 | 39.34174 | 39000 ft | 485 kts | 95° |
| 2026-05-07 15:49 | 33.45962 | 39.42237 | 39008 ft | 486 kts | 95° |
| 2026-05-07 15:49 | 33.45803 | 39.48980 | 39012 ft | 486 kts | 95° |
| 2026-05-07 15:50 | 33.45576 | 39.58370 | 39016 ft | 486 kts | 95° |
| 2026-05-07 15:50 | 33.45407 | 39.65164 | 39017 ft | 487 kts | 95° |
| 2026-05-07 15:51 | 33.45202 | 39.73241 | 39018 ft | 487 kts | 95° |
| 2026-05-07 15:51 | 33.44991 | 39.81357 | 39030 ft | 488 kts | 96° |
| 2026-05-07 15:52 | 33.44774 | 39.89478 | 39022 ft | 488 kts | 96° |
| 2026-05-07 15:52 | 33.44552 | 39.97601 | 39025 ft | 489 kts | 96° |
| 2026-05-07 15:53 | 33.44324 | 40.05713 | 39023 ft | 489 kts | 96° |
| 2026-05-07 15:53 | 33.44090 | 40.13879 | 39026 ft | 489 kts | 96° |
| 2026-05-07 15:54 | 33.43854 | 40.21946 | 39023 ft | 490 kts | 96° |
| 2026-05-07 15:54 | 33.43608 | 40.30164 | 39015 ft | 489 kts | 96° |
| 2026-05-07 15:55 | 33.43365 | 40.38117 | 39014 ft | 490 kts | 97° |
| 2026-05-07 15:55 | 33.43110 | 40.46247 | 39018 ft | 491 kts | 97° |
| 2026-05-07 15:56 | 33.42850 | 40.54415 | 39020 ft | 491 kts | 97° |
| 2026-05-07 15:56 | 33.42584 | 40.62566 | 39024 ft | 492 kts | 97° |
| 2026-05-07 15:57 | 33.42312 | 40.70756 | 39019 ft | 492 kts | 97° |
| 2026-05-07 15:57 | 33.42036 | 40.78901 | 39021 ft | 493 kts | 97° |
| 2026-05-07 15:58 | 33.41764 | 40.86772 | 39023 ft | 493 kts | 97° |
| 2026-05-07 15:58 | 33.41471 | 40.95105 | 39024 ft | 494 kts | 98° |
| 2026-05-07 15:59 | 33.41177 | 41.03291 | 39024 ft | 494 kts | 98° |
| 2026-05-07 15:59 | 33.40878 | 41.11474 | 39027 ft | 495 kts | 98° |
| 2026-05-07 16:00 | 33.40573 | 41.19696 | 39028 ft | 495 kts | 98° |
| 2026-05-07 16:00 | 33.40261 | 41.27948 | 39028 ft | 496 kts | 98° |
| 2026-05-07 16:01 | 33.39949 | 41.36045 | 39036 ft | 496 kts | 98° |
| 2026-05-07 16:01 | 33.39627 | 41.44269 | 39030 ft | 496 kts | 98° |
| 2026-05-07 16:02 | 33.39299 | 41.52513 | 39032 ft | 496 kts | 98° |
| 2026-05-07 16:02 | 33.38963 | 41.60797 | 39033 ft | 496 kts | 98° |
| 2026-05-07 16:03 | 33.38627 | 41.68992 | 39036 ft | 496 kts | 98° |
| 2026-05-07 16:03 | 33.38286 | 41.77251 | 39035 ft | 497 kts | 98° |
| 2026-05-07 16:04 | 33.38043 | 41.85016 | 39035 ft | 497 kts | 98° |
| 2026-05-07 16:04 | 33.37802 | 41.93424 | 39031 ft | 497 kts | 98° |
| 2026-05-07 16:05 | 33.37548 | 42.01648 | 39029 ft | 497 kts | 98° |
| 2026-05-07 16:05 | 33.37282 | 42.09889 | 39026 ft | 497 kts | 98° |
| 2026-05-07 16:06 | 33.37011 | 42.18138 | 39027 ft | 497 kts | 98° |
| 2026-05-07 16:06 | 33.36735 | 42.26406 | 39021 ft | 497 kts | 98° |
| 2026-05-07 16:07 | 33.36462 | 42.34405 | 39016 ft | 497 kts | 98° |
| 2026-05-07 16:07 | 33.36176 | 42.42676 | 39012 ft | 497 kts | 98° |
| 2026-05-07 16:08 | 33.35883 | 42.50953 | 39012 ft | 497 kts | 98° |
| 2026-05-07 16:08 | 33.35587 | 42.59165 | 39011 ft | 498 kts | 99° |
| 2026-05-07 16:09 | 33.35281 | 42.67454 | 39006 ft | 497 kts | 100° |
| 2026-05-07 16:09 | 33.34030 | 42.75437 | 38999 ft | 481 kts | 117° |
| 2026-05-07 16:10 | 33.31450 | 42.82193 | 38994 ft | 464 kts | 130° |
| 2026-05-07 16:10 | 33.28224 | 42.88614 | 39006 ft | 465 kts | 129° |
| 2026-05-07 16:11 | 33.24972 | 42.95186 | 39009 ft | 466 kts | 129° |
| 2026-05-07 16:11 | 33.21658 | 43.01851 | 39015 ft | 467 kts | 130° |
| 2026-05-07 16:12 | 33.18309 | 43.08562 | 39016 ft | 467 kts | 130° |
| 2026-05-07 16:12 | 33.14984 | 43.15212 | 39023 ft | 468 kts | 130° |
| 2026-05-07 16:13 | 33.11662 | 43.21847 | 39012 ft | 466 kts | 130° |
| 2026-05-07 16:13 | 33.08317 | 43.28511 | 39017 ft | 467 kts | 130° |
| 2026-05-07 16:14 | 33.04977 | 43.35152 | 39015 ft | 467 kts | 130° |
| 2026-05-07 16:14 | 33.01693 | 43.41674 | 39017 ft | 467 kts | 130° |
| 2026-05-07 16:15 | 32.98347 | 43.48306 | 39009 ft | 467 kts | 130° |
| 2026-05-07 16:15 | 32.94978 | 43.54912 | 39023 ft | 467 kts | 131° |
| 2026-05-07 16:16 | 32.91601 | 43.61490 | 39016 ft | 467 kts | 131° |
| 2026-05-07 16:16 | 32.88213 | 43.68088 | 39011 ft | 467 kts | 131° |
| 2026-05-07 16:17 | 32.84822 | 43.74684 | 39012 ft | 468 kts | 131° |
| 2026-05-07 16:17 | 32.81496 | 43.81144 | 39008 ft | 468 kts | 131° |
| 2026-05-07 16:18 | 32.78093 | 43.87739 | 39010 ft | 468 kts | 131° |
| 2026-05-07 16:18 | 32.74698 | 43.94309 | 39005 ft | 468 kts | 131° |
| 2026-05-07 16:19 | 32.71289 | 44.00892 | 38998 ft | 468 kts | 131° |
| 2026-05-07 16:19 | 32.67883 | 44.07460 | 38999 ft | 468 kts | 132° |
| 2026-05-07 16:20 | 32.64532 | 44.13910 | 38994 ft | 468 kts | 132° |
| 2026-05-07 16:20 | 32.61098 | 44.20507 | 38990 ft | 468 kts | 132° |
| 2026-05-07 16:21 | 32.57687 | 44.27049 | 38990 ft | 468 kts | 132° |
| 2026-05-07 16:21 | 32.54254 | 44.33621 | 38989 ft | 468 kts | 132° |
| 2026-05-07 16:22 | 32.50828 | 44.40168 | 38985 ft | 469 kts | 132° |
| 2026-05-07 16:22 | 32.47385 | 44.46738 | 38982 ft | 469 kts | 132° |
| 2026-05-07 16:23 | 32.44210 | 44.52785 | 38982 ft | 469 kts | 132° |
| 2026-05-07 16:23 | 32.40754 | 44.59355 | 38976 ft | 470 kts | 133° |
| 2026-05-07 16:24 | 32.37299 | 44.65920 | 38975 ft | 471 kts | 131° |
| 2026-05-07 16:24 | 32.34327 | 44.72560 | 38974 ft | 479 kts | 127° |
| 2026-05-07 16:25 | 32.31332 | 44.79478 | 38972 ft | 479 kts | 128° |
| 2026-05-07 16:25 | 32.28296 | 44.86451 | 38971 ft | 480 kts | 128° |
| 2026-05-07 16:26 | 32.25237 | 44.93459 | 38976 ft | 481 kts | 128° |
| 2026-05-07 16:26 | 32.22164 | 45.00486 | 38965 ft | 481 kts | 128° |
| 2026-05-07 16:27 | 32.19131 | 45.07427 | 38970 ft | 473 kts | 128° |
| 2026-05-07 16:27 | 32.16099 | 45.14318 | 38981 ft | 475 kts | 128° |
| 2026-05-07 16:28 | 32.13052 | 45.21242 | 38974 ft | 475 kts | 128° |
| 2026-05-07 16:28 | 32.10016 | 45.28132 | 38974 ft | 475 kts | 128° |
| 2026-05-07 16:29 | 32.06934 | 45.35113 | 38976 ft | 476 kts | 129° |
| 2026-05-07 16:29 | 32.03909 | 45.41950 | 38975 ft | 476 kts | 129° |
| 2026-05-07 16:30 | 32.00844 | 45.48864 | 38980 ft | 476 kts | 129° |
| 2026-05-07 16:30 | 31.97778 | 45.55769 | 38978 ft | 477 kts | 129° |
| 2026-05-07 16:31 | 31.94817 | 45.62427 | 38983 ft | 477 kts | 129° |
| 2026-05-07 16:31 | 31.91839 | 45.69109 | 38979 ft | 478 kts | 129° |
| 2026-05-07 16:32 | 31.88749 | 45.76029 | 38982 ft | 478 kts | 129° |
| 2026-05-07 16:32 | 31.85676 | 45.82896 | 38986 ft | 479 kts | 128° |
| 2026-05-07 16:33 | 31.82533 | 45.89894 | 38988 ft | 483 kts | 128° |
| 2026-05-07 16:33 | 31.79385 | 45.96905 | 38985 ft | 485 kts | 128° |
| 2026-05-07 16:34 | 31.76252 | 46.03878 | 38986 ft | 485 kts | 128° |
| 2026-05-07 16:34 | 31.73101 | 46.10936 | 38985 ft | 487 kts | 128° |
| 2026-05-07 16:35 | 31.70037 | 46.17970 | 38984 ft | 487 kts | 127° |
| 2026-05-07 16:35 | 31.66932 | 46.25072 | 38976 ft | 487 kts | 128° |
| 2026-05-07 16:36 | 31.63905 | 46.31965 | 38969 ft | 487 kts | 128° |
| 2026-05-07 16:36 | 31.60861 | 46.38877 | 38961 ft | 488 kts | 128° |
| 2026-05-07 16:37 | 31.57739 | 46.45955 | 38959 ft | 488 kts | 128° |
| 2026-05-07 16:37 | 31.54624 | 46.53002 | 38953 ft | 488 kts | 128° |
| 2026-05-07 16:38 | 31.52054 | 46.58805 | 38952 ft | 488 kts | 128° |
| 2026-05-07 16:38 | 31.48923 | 46.65865 | 38950 ft | 489 kts | 128° |
| 2026-05-07 16:39 | 31.45409 | 46.73772 | 38944 ft | 489 kts | 128° |
| 2026-05-07 16:39 | 31.42773 | 46.79691 | 38944 ft | 489 kts | 128° |
| 2026-05-07 16:40 | 31.39638 | 46.86720 | 38940 ft | 489 kts | 128° |
| 2026-05-07 16:40 | 31.36196 | 46.93481 | 38938 ft | 476 kts | 138° |
| 2026-05-07 16:41 | 31.31980 | 46.99231 | 38925 ft | 459 kts | 148° |
| 2026-05-07 16:41 | 31.27405 | 47.04088 | 38924 ft | 455 kts | 150° |
| 2026-05-07 16:42 | 31.22700 | 47.09085 | 38924 ft | 456 kts | 150° |
| 2026-05-07 16:42 | 31.17994 | 47.14081 | 38925 ft | 457 kts | 150° |
| 2026-05-07 16:43 | 31.13283 | 47.19068 | 38925 ft | 457 kts | 150° |
| 2026-05-07 16:43 | 31.08607 | 47.24011 | 38924 ft | 457 kts | 150° |
| 2026-05-07 16:44 | 31.03922 | 47.28957 | 38924 ft | 458 kts | 150° |
| 2026-05-07 16:44 | 30.99163 | 47.33972 | 38919 ft | 458 kts | 150° |
| 2026-05-07 16:45 | 30.94445 | 47.38938 | 38923 ft | 458 kts | 150° |
| 2026-05-07 16:45 | 30.89777 | 47.43845 | 38920 ft | 458 kts | 150° |
| 2026-05-07 16:46 | 30.84981 | 47.48879 | 38915 ft | 459 kts | 150° |
| 2026-05-07 16:46 | 30.80238 | 47.53846 | 38907 ft | 459 kts | 150° |
| 2026-05-07 16:47 | 30.75486 | 47.58813 | 38898 ft | 459 kts | 150° |
| 2026-05-07 16:47 | 30.70750 | 47.63757 | 38889 ft | 459 kts | 150° |
| 2026-05-07 16:48 | 30.66105 | 47.68599 | 38884 ft | 459 kts | 150° |
| 2026-05-07 16:48 | 30.61247 | 47.73658 | 38882 ft | 459 kts | 151° |
| 2026-05-07 16:49 | 30.56489 | 47.78606 | 38882 ft | 460 kts | 151° |
| 2026-05-07 16:49 | 30.51735 | 47.83542 | 38883 ft | 460 kts | 151° |
| 2026-05-07 16:50 | 30.47346 | 47.88092 | 38884 ft | 460 kts | 151° |
| 2026-05-07 16:50 | 30.42555 | 47.93052 | 38900 ft | 460 kts | 151° |
| 2026-05-07 16:51 | 30.37771 | 47.97999 | 38864 ft | 460 kts | 151° |
| 2026-05-07 16:51 | 30.33005 | 48.02922 | 38851 ft | 460 kts | 151° |
| 2026-05-07 16:52 | 30.28308 | 48.07765 | 38839 ft | 461 kts | 151° |
| 2026-05-07 16:52 | 30.23524 | 48.12692 | 38843 ft | 461 kts | 151° |
| 2026-05-07 16:53 | 30.18736 | 48.17615 | 38852 ft | 461 kts | 151° |
| 2026-05-07 16:53 | 30.13962 | 48.22519 | 38865 ft | 461 kts | 151° |
| 2026-05-07 16:54 | 30.09163 | 48.27441 | 38876 ft | 462 kts | 151° |
| 2026-05-07 16:54 | 30.04534 | 48.32183 | 38888 ft | 462 kts | 151° |
| 2026-05-07 16:55 | 29.99750 | 48.37077 | 38891 ft | 462 kts | 151° |
| 2026-05-07 16:55 | 29.94956 | 48.41974 | 38889 ft | 463 kts | 151° |
| 2026-05-07 16:56 | 29.90137 | 48.46890 | 38887 ft | 463 kts | 151° |
| 2026-05-07 16:56 | 29.83313 | 48.55070 | 38888 ft | 477 kts | 143° |
| 2026-05-07 16:57 | 29.79055 | 48.60697 | 38890 ft | 477 kts | 143° |
| 2026-05-07 16:57 | 29.74673 | 48.66458 | 38890 ft | 477 kts | 143° |
| 2026-05-07 16:58 | 29.70330 | 48.72154 | 38891 ft | 477 kts | 143° |
| 2026-05-07 16:58 | 29.66015 | 48.77805 | 38893 ft | 477 kts | 143° |
| 2026-05-07 16:59 | 29.61631 | 48.83539 | 38887 ft | 477 kts | 143° |
| 2026-05-07 16:59 | 29.57247 | 48.89264 | 38881 ft | 477 kts | 143° |
| 2026-05-07 17:00 | 29.52875 | 48.94966 | 38889 ft | 477 kts | 143° |
| 2026-05-07 17:00 | 29.48467 | 49.00706 | 38884 ft | 477 kts | 143° |
| 2026-05-07 17:01 | 29.44228 | 49.06232 | 38882 ft | 477 kts | 142° |
| 2026-05-07 17:01 | 29.39874 | 49.11958 | 38875 ft | 478 kts | 142° |
| 2026-05-07 17:02 | 29.35517 | 49.17677 | 38871 ft | 478 kts | 142° |
| 2026-05-07 17:02 | 29.31178 | 49.23358 | 38874 ft | 478 kts | 142° |
| 2026-05-07 17:03 | 29.27064 | 49.28735 | 38870 ft | 478 kts | 142° |
| 2026-05-07 17:03 | 29.22666 | 49.34477 | 38871 ft | 479 kts | 142° |
| 2026-05-07 17:04 | 29.18306 | 49.40160 | 38869 ft | 479 kts | 142° |
| 2026-05-07 17:04 | 29.13943 | 49.45841 | 38868 ft | 479 kts | 142° |
| 2026-05-07 17:05 | 29.09602 | 49.51494 | 38866 ft | 471 kts | 142° |
| 2026-05-07 17:05 | 29.05207 | 49.57063 | 38862 ft | 471 kts | 144° |
| 2026-05-07 17:06 | 29.00709 | 49.62490 | 38864 ft | 470 kts | 144° |
| 2026-05-07 17:06 | 28.96242 | 49.67905 | 38856 ft | 471 kts | 144° |
| 2026-05-07 17:07 | 28.91753 | 49.73368 | 38856 ft | 472 kts | 144° |
| 2026-05-07 17:07 | 28.87269 | 49.78821 | 38860 ft | 472 kts | 144° |
| 2026-05-07 17:08 | 28.82786 | 49.84268 | 38847 ft | 472 kts | 144° |
| 2026-05-07 17:08 | 28.78302 | 49.89707 | 38848 ft | 471 kts | 144° |
| 2026-05-07 17:09 | 28.73802 | 49.95158 | 38848 ft | 472 kts | 144° |
| 2026-05-07 17:09 | 28.69292 | 50.00613 | 38854 ft | 472 kts | 144° |
| 2026-05-07 17:10 | 28.64927 | 50.05886 | 38855 ft | 472 kts | 144° |
| 2026-05-07 17:10 | 28.60465 | 50.11269 | 38864 ft | 471 kts | 143° |
| 2026-05-07 17:11 | 28.56640 | 50.15878 | 38855 ft | 471 kts | 143° |
| 2026-05-07 17:11 | 28.52100 | 50.21291 | 38853 ft | 470 kts | 144° |
| 2026-05-07 17:12 | 28.47870 | 50.26225 | 38856 ft | 470 kts | 144° |
| 2026-05-07 17:12 | 28.43332 | 50.31522 | 38853 ft | 469 kts | 144° |
| 2026-05-07 17:13 | 28.38758 | 50.36868 | 38849 ft | 469 kts | 144° |
| 2026-05-07 17:13 | 28.34238 | 50.42144 | 38847 ft | 469 kts | 144° |
| 2026-05-07 17:14 | 28.29848 | 50.47263 | 38842 ft | 469 kts | 144° |
| 2026-05-07 17:14 | 28.25316 | 50.52540 | 38838 ft | 469 kts | 144° |
| 2026-05-07 17:15 | 28.20767 | 50.57831 | 38836 ft | 469 kts | 144° |
| 2026-05-07 17:15 | 28.16212 | 50.63121 | 38832 ft | 469 kts | 144° |
| 2026-05-07 17:16 | 28.11659 | 50.68402 | 38833 ft | 469 kts | 144° |
| 2026-05-07 17:16 | 28.07130 | 50.73648 | 38834 ft | 469 kts | 144° |
| 2026-05-07 17:17 | 28.02563 | 50.78932 | 38829 ft | 469 kts | 143° |
| 2026-05-07 17:17 | 27.97991 | 50.84215 | 38832 ft | 469 kts | 143° |
| 2026-05-07 17:18 | 27.93451 | 50.89455 | 38835 ft | 469 kts | 143° |
| 2026-05-07 17:18 | 27.88873 | 50.94730 | 38831 ft | 469 kts | 143° |
| 2026-05-07 17:19 | 27.84313 | 50.99979 | 38832 ft | 469 kts | 143° |
| 2026-05-07 17:19 | 27.79832 | 51.05130 | 38829 ft | 470 kts | 143° |
| 2026-05-07 17:20 | 27.75257 | 51.10383 | 38833 ft | 470 kts | 143° |
| 2026-05-07 17:20 | 27.70698 | 51.15614 | 38829 ft | 471 kts | 142° |
| 2026-05-07 17:21 | 27.66614 | 51.21345 | 38829 ft | 483 kts | 131° |
| 2026-05-07 17:21 | 27.63038 | 51.27752 | 38827 ft | 484 kts | 130° |
| 2026-05-07 17:22 | 27.59437 | 51.34178 | 38829 ft | 484 kts | 130° |
| 2026-05-07 17:22 | 27.55826 | 51.40599 | 38831 ft | 484 kts | 130° |
| 2026-05-07 17:23 | 27.52235 | 51.46975 | 38831 ft | 483 kts | 130° |
| 2026-05-07 17:23 | 27.48648 | 51.53334 | 38831 ft | 483 kts | 130° |
| 2026-05-07 17:24 | 27.45031 | 51.59737 | 38829 ft | 483 kts | 130° |
| 2026-05-07 17:24 | 27.41427 | 51.66108 | 38825 ft | 482 kts | 130° |
| 2026-05-07 17:25 | 27.37838 | 51.72444 | 38820 ft | 482 kts | 129° |
| 2026-05-07 17:25 | 27.34223 | 51.78816 | 38818 ft | 482 kts | 129° |
| 2026-05-07 17:26 | 27.30651 | 51.85103 | 38815 ft | 482 kts | 129° |
| 2026-05-07 17:26 | 27.27054 | 51.91424 | 38806 ft | 482 kts | 129° |
| 2026-05-07 17:27 | 27.23552 | 51.97570 | 38805 ft | 482 kts | 129° |
| 2026-05-07 17:27 | 27.19944 | 52.03895 | 38803 ft | 482 kts | 129° |
| 2026-05-07 17:28 | 27.16469 | 52.09965 | 38820 ft | 482 kts | 129° |
| 2026-05-07 17:28 | 27.12844 | 52.16287 | 38804 ft | 482 kts | 129° |
| 2026-05-07 17:29 | 27.09211 | 52.22616 | 38816 ft | 482 kts | 129° |
| 2026-05-07 17:29 | 27.05568 | 52.28949 | 38813 ft | 483 kts | 129° |
| 2026-05-07 17:30 | 27.01918 | 52.35282 | 38818 ft | 483 kts | 129° |
| 2026-05-07 17:30 | 26.98291 | 52.41566 | 38823 ft | 483 kts | 129° |
| 2026-05-07 17:31 | 26.94640 | 52.47885 | 38822 ft | 484 kts | 129° |
| 2026-05-07 17:31 | 26.90970 | 52.54225 | 38823 ft | 484 kts | 129° |
| 2026-05-07 17:32 | 26.87306 | 52.60547 | 38828 ft | 484 kts | 129° |
| 2026-05-07 17:32 | 26.84245 | 52.65823 | 38828 ft | 484 kts | 129° |
| 2026-05-07 17:33 | 26.79961 | 52.73195 | 38825 ft | 485 kts | 129° |
| 2026-05-07 17:33 | 26.76294 | 52.79494 | 38827 ft | 485 kts | 129° |
| 2026-05-07 17:34 | 26.73233 | 52.84748 | 38829 ft | 485 kts | 129° |
| 2026-05-07 17:34 | 26.69539 | 52.91077 | 38826 ft | 485 kts | 129° |
| 2026-05-07 17:35 | 26.66173 | 52.96837 | 38834 ft | 484 kts | 129° |
| 2026-05-07 17:35 | 26.62453 | 53.03194 | 38833 ft | 484 kts | 129° |
| 2026-05-07 17:36 | 26.58778 | 53.09468 | 38825 ft | 484 kts | 129° |
| 2026-05-07 17:36 | 26.55091 | 53.15751 | 38831 ft | 484 kts | 129° |
| 2026-05-07 17:37 | 26.51541 | 53.21778 | 38826 ft | 483 kts | 129° |
| 2026-05-07 17:37 | 26.49610 | 53.25051 | 38708 ft | 479 kts | 129° |
| 2026-05-07 17:37 | 26.47775 | 53.28160 | 38204 ft | 479 kts | 129° |
| 2026-05-07 17:38 | 26.45948 | 53.31253 | 37515 ft | 480 kts | 129° |
| 2026-05-07 17:38 | 26.44102 | 53.34375 | 36765 ft | 482 kts | 129° |
| 2026-05-07 17:38 | 26.42269 | 53.37473 | 36025 ft | 484 kts | 128° |
| 2026-05-07 17:38 | 26.40398 | 53.40634 | 35285 ft | 486 kts | 128° |
| 2026-05-07 17:39 | 26.38542 | 53.43769 | 34580 ft | 488 kts | 128° |
| 2026-05-07 17:39 | 26.36731 | 53.46824 | 33896 ft | 489 kts | 128° |
| 2026-05-07 17:39 | 26.34904 | 53.49906 | 33135 ft | 491 kts | 128° |
| 2026-05-07 17:39 | 26.32977 | 53.53155 | 32392 ft | 490 kts | 128° |
| 2026-05-07 17:40 | 26.31123 | 53.56278 | 31671 ft | 490 kts | 128° |
| 2026-05-07 17:40 | 26.29273 | 53.59389 | 30947 ft | 491 kts | 128° |
| 2026-05-07 17:40 | 26.27420 | 53.62499 | 30237 ft | 491 kts | 128° |
| 2026-05-07 17:40 | 26.25534 | 53.65665 | 29614 ft | 487 kts | 128° |
| 2026-05-07 17:41 | 26.23673 | 53.68788 | 29076 ft | 481 kts | 128° |
| 2026-05-07 17:41 | 26.21941 | 53.71692 | 28550 ft | 475 kts | 127° |
| 2026-05-07 17:41 | 26.20139 | 53.74710 | 28007 ft | 469 kts | 127° |
| 2026-05-07 17:41 | 26.18330 | 53.77737 | 27462 ft | 464 kts | 127° |
| 2026-05-07 17:42 | 26.16734 | 53.80403 | 26992 ft | 459 kts | 127° |
| 2026-05-07 17:42 | 26.14969 | 53.83350 | 26460 ft | 453 kts | 127° |
| 2026-05-07 17:42 | 26.13239 | 53.86238 | 25951 ft | 448 kts | 126° |
| 2026-05-07 17:42 | 26.11513 | 53.89118 | 25451 ft | 443 kts | 126° |
| 2026-05-07 17:43 | 26.09820 | 53.91940 | 24962 ft | 438 kts | 126° |
| 2026-05-07 17:43 | 26.08119 | 53.94773 | 24472 ft | 433 kts | 126° |
| 2026-05-07 17:43 | 26.06608 | 53.97636 | 23984 ft | 430 kts | 120° |
| 2026-05-07 17:43 | 26.05235 | 54.00551 | 23513 ft | 425 kts | 120° |
| 2026-05-07 17:44 | 26.03861 | 54.03456 | 22979 ft | 420 kts | 120° |
| 2026-05-07 17:44 | 26.02506 | 54.06311 | 22426 ft | 415 kts | 120° |
| 2026-05-07 17:44 | 26.01153 | 54.09157 | 21870 ft | 411 kts | 120° |
| 2026-05-07 17:44 | 25.99831 | 54.11932 | 21338 ft | 407 kts | 120° |
| 2026-05-07 17:45 | 25.98531 | 54.14665 | 20825 ft | 402 kts | 120° |
| 2026-05-07 17:45 | 25.97211 | 54.17435 | 20302 ft | 398 kts | 120° |
| 2026-05-07 17:45 | 25.95925 | 54.20130 | 19802 ft | 394 kts | 120° |
| 2026-05-07 17:45 | 25.94645 | 54.22812 | 19316 ft | 389 kts | 120° |
| 2026-05-07 17:46 | 25.93389 | 54.25443 | 18819 ft | 386 kts | 119° |
| 2026-05-07 17:46 | 25.92146 | 54.28078 | 18345 ft | 382 kts | 117° |
| 2026-05-07 17:46 | 25.91162 | 54.30786 | 17843 ft | 379 kts | 110° |
| 2026-05-07 17:46 | 25.90336 | 54.33452 | 17283 ft | 377 kts | 110° |
| 2026-05-07 17:47 | 25.89474 | 54.36206 | 16697 ft | 375 kts | 110° |
| 2026-05-07 17:47 | 25.88602 | 54.38922 | 16149 ft | 372 kts | 113° |
| 2026-05-07 17:47 | 25.87495 | 54.41488 | 15608 ft | 369 kts | 121° |
| 2026-05-07 17:47 | 25.86127 | 54.43885 | 15080 ft | 366 kts | 124° |
| 2026-05-07 17:48 | 25.84736 | 54.46249 | 14554 ft | 364 kts | 124° |
| 2026-05-07 17:48 | 25.83342 | 54.48634 | 14038 ft | 362 kts | 123° |
| 2026-05-07 17:48 | 25.81983 | 54.50963 | 13544 ft | 360 kts | 123° |
| 2026-05-07 17:48 | 25.80625 | 54.53289 | 13017 ft | 357 kts | 123° |
| 2026-05-07 17:49 | 25.79285 | 54.55584 | 12511 ft | 354 kts | 123° |
| 2026-05-07 17:49 | 25.77978 | 54.57821 | 12288 ft | 344 kts | 123° |
| 2026-05-07 17:49 | 25.76649 | 54.60093 | 12202 ft | 354 kts | 123° |
| 2026-05-07 17:49 | 25.75294 | 54.62408 | 12108 ft | 354 kts | 123° |
| 2026-05-07 17:50 | 25.73967 | 54.64675 | 12010 ft | 352 kts | 123° |
| 2026-05-07 17:50 | 25.72617 | 54.66980 | 12003 ft | 353 kts | 123° |
| 2026-05-07 17:50 | 25.71286 | 54.69252 | 12001 ft | 354 kts | 123° |
| 2026-05-07 17:50 | 25.69953 | 54.71527 | 12001 ft | 354 kts | 123° |
| 2026-05-07 17:51 | 25.68812 | 54.73472 | 11999 ft | 354 kts | 123° |
| 2026-05-07 17:51 | 25.67426 | 54.75835 | 12004 ft | 353 kts | 123° |
| 2026-05-07 17:51 | 25.66084 | 54.78121 | 12004 ft | 354 kts | 123° |
| 2026-05-07 17:51 | 25.64745 | 54.80400 | 12008 ft | 354 kts | 123° |
| 2026-05-07 17:52 | 25.63408 | 54.82677 | 12006 ft | 354 kts | 123° |
| 2026-05-07 17:52 | 25.62157 | 54.84805 | 12006 ft | 354 kts | 123° |
| 2026-05-07 17:52 | 25.60938 | 54.87140 | 12006 ft | 354 kts | 115° |
| 2026-05-07 17:52 | 25.59946 | 54.89671 | 12009 ft | 354 kts | 113° |
| 2026-05-07 17:53 | 25.58990 | 54.92153 | 12005 ft | 354 kts | 113° |
| 2026-05-07 17:53 | 25.58020 | 54.94653 | 12000 ft | 353 kts | 113° |
| 2026-05-07 17:53 | 25.57056 | 54.97130 | 11931 ft | 345 kts | 113° |
| 2026-05-07 17:53 | 25.56124 | 54.99518 | 11840 ft | 333 kts | 113° |
| 2026-05-07 17:54 | 25.55217 | 55.01842 | 11726 ft | 321 kts | 113° |
| 2026-05-07 17:54 | 25.54297 | 55.04024 | 11614 ft | 308 kts | 119° |
| 2026-05-07 17:54 | 25.53232 | 55.06057 | 11503 ft | 296 kts | 120° |
| 2026-05-07 17:54 | 25.52229 | 55.07981 | 11397 ft | 284 kts | 120° |
| 2026-05-07 17:55 | 25.51265 | 55.09841 | 11142 ft | 279 kts | 119° |
| 2026-05-07 17:55 | 25.50297 | 55.11708 | 10775 ft | 278 kts | 119° |
| 2026-05-07 17:55 | 25.49338 | 55.13558 | 10432 ft | 278 kts | 119° |
| 2026-05-07 17:55 | 25.48377 | 55.15411 | 10080 ft | 277 kts | 119° |
| 2026-05-07 17:56 | 25.47424 | 55.17245 | 9733 ft | 276 kts | 119° |
| 2026-05-07 17:56 | 25.46456 | 55.19106 | 9366 ft | 275 kts | 121° |
| 2026-05-07 17:56 | 25.45336 | 55.20794 | 9008 ft | 274 kts | 132° |
| 2026-05-07 17:56 | 25.44061 | 55.22331 | 8667 ft | 273 kts | 132° |
| 2026-05-07 17:57 | 25.42858 | 55.23798 | 8332 ft | 272 kts | 131° |
| 2026-05-07 17:57 | 25.42209 | 55.24593 | 8189 ft | 270 kts | 131° |
| 2026-05-07 17:57 | 25.40544 | 55.26640 | 8086 ft | 273 kts | 131° |
| 2026-05-07 17:57 | 25.39276 | 55.28199 | 8013 ft | 272 kts | 131° |
| 2026-05-07 17:58 | 25.38013 | 55.29751 | 7998 ft | 270 kts | 132° |
| 2026-05-07 17:58 | 25.36743 | 55.31310 | 7995 ft | 268 kts | 132° |
| 2026-05-07 17:58 | 25.35417 | 55.32694 | 7993 ft | 253 kts | 144° |
| 2026-05-07 17:58 | 25.33943 | 55.33667 | 7999 ft | 252 kts | 153° |
| 2026-05-07 17:59 | 25.32353 | 55.34576 | 7984 ft | 258 kts | 153° |
| 2026-05-07 17:59 | 25.31054 | 55.35334 | 7941 ft | 255 kts | 153° |
| 2026-05-07 17:59 | 25.29471 | 55.36264 | 7633 ft | 257 kts | 152° |
| 2026-05-07 17:59 | 25.27884 | 55.37198 | 7163 ft | 264 kts | 152° |
| 2026-05-07 18:00 | 25.26342 | 55.38103 | 6647 ft | 273 kts | 153° |
| 2026-05-07 18:00 | 25.24590 | 55.39130 | 6041 ft | 283 kts | 153° |
| 2026-05-07 18:00 | 25.22802 | 55.40178 | 5433 ft | 291 kts | 153° |
| 2026-05-07 18:00 | 25.21002 | 55.41233 | 4809 ft | 299 kts | 153° |
| 2026-05-07 18:01 | 25.19151 | 55.42315 | 4161 ft | 307 kts | 153° |
| 2026-05-07 18:01 | 25.17214 | 55.43450 | 3606 ft | 310 kts | 153° |
| 2026-05-07 18:01 | 25.15359 | 55.44538 | 3508 ft | 296 kts | 153° |
| 2026-05-07 18:01 | 25.13591 | 55.45576 | 3405 ft | 283 kts | 153° |
| 2026-05-07 18:02 | 25.10602 | 55.48057 | 3199 ft | 262 kts | 127° |
| 2026-05-07 18:02 | 25.09665 | 55.49720 | 3090 ft | 252 kts | 122° |
| 2026-05-07 18:02 | 25.08770 | 55.51347 | 3013 ft | 239 kts | 122° |
| 2026-05-07 18:03 | 25.07931 | 55.52866 | 3012 ft | 223 kts | 122° |
| 2026-05-07 18:03 | 25.07175 | 55.54270 | 3030 ft | 207 kts | 121° |
| 2026-05-07 18:03 | 25.06841 | 55.55725 | 3016 ft | 189 kts | 83° |
| 2026-05-07 18:03 | 25.07366 | 55.57024 | 3018 ft | 193 kts | 44° |
| 2026-05-07 18:04 | 25.08449 | 55.57946 | 3029 ft | 192 kts | 32° |
| 2026-05-07 18:04 | 25.09538 | 55.58776 | 3028 ft | 191 kts | 32° |
| 2026-05-07 18:04 | 25.10713 | 55.59355 | 3030 ft | 187 kts | 4° |
| 2026-05-07 18:04 | 25.11972 | 55.59121 | 3027 ft | 182 kts | 331° |
| 2026-05-07 18:05 | 25.12961 | 55.58299 | 3028 ft | 179 kts | 311° |
| 2026-05-07 18:05 | 25.13730 | 55.57226 | 3024 ft | 179 kts | 302° |
| 2026-05-07 18:05 | 25.14405 | 55.56073 | 3029 ft | 178 kts | 300° |
| 2026-05-07 18:05 | 25.15055 | 55.54907 | 3022 ft | 179 kts | 299° |
| 2026-05-07 18:06 | 25.15698 | 55.53750 | 2876 ft | 173 kts | 299° |
| 2026-05-07 18:06 | 25.16309 | 55.52647 | 2653 ft | 165 kts | 299° |
| 2026-05-07 18:06 | 25.16900 | 55.51580 | 2460 ft | 163 kts | 299° |
| 2026-05-07 18:06 | 25.17491 | 55.50510 | 2231 ft | 158 kts | 300° |
| 2026-05-07 18:07 | 25.18038 | 55.49524 | 2043 ft | 149 kts | 299° |
| 2026-05-07 18:07 | 25.18583 | 55.48538 | 1882 ft | 149 kts | 300° |
| 2026-05-07 18:07 | 25.19115 | 55.47576 | 1699 ft | 148 kts | 301° |
| 2026-05-07 18:07 | 25.19649 | 55.46610 | 1510 ft | 146 kts | 301° |
| 2026-05-07 18:08 | 25.20164 | 55.45676 | 1300 ft | 140 kts | 301° |
| 2026-05-07 18:08 | 25.20663 | 55.44769 | 1067 ft | 138 kts | 300° |
| 2026-05-07 18:08 | 25.21156 | 55.43880 | 920 ft | 134 kts | 301° |
| 2026-05-07 18:08 | 25.21652 | 55.42999 | 833 ft | 135 kts | 302° |
| 2026-05-07 18:09 | 25.22139 | 55.42106 | 646 ft | 137 kts | 301° |
| 2026-05-07 18:09 | 25.22629 | 55.41201 | 482 ft | 138 kts | 301° |
| 2026-05-07 18:09 | 25.23126 | 55.40314 | 308 ft | 135 kts | 302° |
| 2026-05-07 18:09 | 25.23626 | 55.39416 | 93 ft | 132 kts | 302° |
| 2026-05-07 18:10 | 25.24075 | 55.38621 | 21 ft | 107 kts | 301° |
| 2026-05-07 18:10 | 25.24360 | 55.38105 | 12 ft | 49 kts | 301° |
| 2026-05-07 18:10 | 25.24451 | 55.37940 | 12 ft | 26 kts | 301° |
| 2026-05-07 18:10 | 25.24574 | 55.37715 | 11 ft | 36 kts | 302° |
| 2026-05-07 18:11 | 25.24698 | 55.37490 | 12 ft | 33 kts | 302° |
| 2026-05-07 18:11 | 25.24761 | 55.37338 | 10 ft | 33 kts | 287° |
| 2026-05-07 18:11 | 25.24733 | 55.37116 | 12 ft | 15 kts | 156° |
| 2026-05-07 18:11 | 25.24656 | 55.37198 | 11 ft | 17 kts | 133° |
| 2026-05-07 18:12 | 25.24572 | 55.37258 | 10 ft | 14 kts | 152° |
| 2026-05-07 18:12 | 25.24503 | 55.37258 | 10 ft | 8 kts | 199° |
| 2026-05-07 18:12 | 25.24455 | 55.37230 | 10 ft | 7 kts | 211° |
| 2026-05-07 18:12 | 25.24427 | 55.37210 | 11 ft | 4 kts | 210° |
| 2026-05-07 18:13 | 25.24426 | 55.37210 | 11 ft | 0 kts | 210° |